• Join FlightAware (Why Join?)
  • Login
  • US Flag 
01:02PM EST


 

Airport Tracker/Info


-or-


 

Live Flight TrackerFlight Track Log ✈ DAL3720 ✈ 25-Jul-2013 ✈ KMDT - KDTW

Flight Track Log - Related Links

Times and Time Zones

All times are in EDT time to prevent confusion due to time zone crossing. See the DAL3720 flight status page for this flight to view local times or setup timezone preferences in your user account.

Time Position Orientation Groundspeed Altitude Reporting Facility
EDT Latitude Longitude Course Direction KTS MPH feet Rate Location/Type
06:23AM 40.2996 -77.0677 242° Southwest  Level FlightAware Approximate
06:23AM 40.2394 -76.9108 247° West 202 232 5,200  Level New York Center
06:24AM 40.2562 -77.1762 242° Southwest  Level FlightAware Approximate
06:24AM 40.2264 -76.9969 259° West 258 297 7,600  Level New York Center
06:25AM 40.2122 -77.2841 241° Southwest  Level FlightAware Approximate
06:25AM 40.2064 -77.1011 256° West 269 310 9,800  Level New York Center
06:26AM 40.1675 -77.3914 241° Southwest  Level FlightAware Approximate
06:26AM 40.1989 -77.2011 264° West 293 337 11,500  Level New York Center
06:27AM 40.1273 -77.5016 247° West  Level FlightAware Approximate
06:27AM 40.1875 -77.3331 264° West 317 365 13,300  Level New York Center
06:28AM 40.0900 -77.6136 247° West  Level FlightAware Approximate
06:28AM 40.1789 -77.4464 264° West 349 402 14,800  Level New York Center
06:29AM 40.1667 -77.5892 264° West 354 407 16,700 1,380 Climbing New York Center
06:31AM 40.1456 -77.8753 265° West 376 433 19,300 1,140 Climbing Cleveland Center
06:32AM 40.1303 -78.0306 263° West 381 438 20,400 1,140 Climbing Cleveland Center
06:33AM 40.1189 -78.1722 264° West 391 450 21,600 1,200 Climbing Cleveland Center
06:34AM 40.1072 -78.3136 264° West 391 450 22,800 1,020 Climbing Cleveland Center
06:35AM 40.0931 -78.4528 262° West 391 450 23,700 840 Climbing Cleveland Center
06:36AM 40.0789 -78.5942 263° West 391 450 24,500 780 Climbing Cleveland Center
06:37AM 40.0667 -78.7356 264° West 391 450 25,300 780 Climbing Cleveland Center
06:38AM 40.0544 -78.8769 264° West 391 450 26,100 720 Climbing Cleveland Center
06:39AM 40.0439 -79.0239 265° West 396 456 26,800 600 Climbing Cleveland Center
06:40AM 40.0314 -79.1678 264° West 401 461 27,300 480 Climbing Cleveland Center
06:41AM 40.0164 -79.3172 263° West 413 475 27,800 300 Climbing Cleveland Center
06:42AM 40.0594 -79.4575 292° West 400 460 28,000 60 Climbing Cleveland Center
06:43AM 40.1275 -79.5919 304° West 418 481 28,000  Level Cleveland Center
06:44AM 40.1975 -79.7297 304° West 431 496 28,000  Level Cleveland Center
06:45AM 40.2631 -79.8647 303° West 445 512 28,000  Level Cleveland Center
06:46AM 40.3303 -79.9975 304° West 450 518 28,000  Level Cleveland Center
06:47AM 40.3956 -80.1333 302° West 450 518 28,000  Level Cleveland Center
06:48AM 40.4586 -80.2667 302° West 450 518 28,000  Level Cleveland Center
06:49AM 40.5214 -80.3864 305° West 445 512 28,000  Level Cleveland Center
06:50AM 40.5861 -80.5203 303° West 440 506 28,000  Level Cleveland Center
06:51AM 40.6486 -80.6542 302° West 433 498 28,000  Level Cleveland Center
06:52AM 40.7153 -80.7886 303° West 433 498 28,000  Level Cleveland Center
06:53AM 40.7797 -80.9231 302° West 433 498 28,000 -420 Level Cleveland Center
06:54AM 40.8436 -81.0606 302° West 433 498 27,200 -960 Descending Cleveland Center
06:55AM 40.8764 -81.2175 285° West 413 475 26,100 -1,080 Descending Cleveland Center
06:56AM 40.8881 -81.3603 276° West 399 459 25,100 -1,080 Descending Cleveland Center
06:57AM 40.9581 -81.4794 308° West 399 459 24,000 -600 Descending Cleveland Center
06:58AM 41.0300 -81.5961 309° West 408 470 24,000  Level Cleveland Center
06:59AM 41.1017 -81.7183 308° West 420 483 24,000  Level Cleveland Center
07:00AM 41.1694 -81.8300 309° West 425 489 24,000  Level Cleveland Center
07:01AM 41.2408 -81.9528 308° West 425 489 24,000 -300 Level Cleveland Center
07:02AM 41.3103 -82.0758 307° West 425 489 23,400 -900 Descending Cleveland Center
07:03AM 41.3794 -82.1992 307° West 416 479 22,200 -1,740 Descending Cleveland Center
07:04AM 41.4547 -82.3258 308° West 416 479 20,000 -2,220 Descending Cleveland Center
07:05AM 41.5217 -82.4358 309° West 400 460 17,800 -2,160 Descending Cleveland Center
07:06AM 41.5867 -82.5431 309° West 388 447 15,700 -2,160 Descending Cleveland Center
07:07AM 41.6453 -82.6450 308° West 367 422 13,500 -2,100 Descending Cleveland Center
07:07AM 41.6797 -82.6989 311° West 349 402 12,500 -900 Descending Cleveland Center
07:09AM 41.7528 -82.8097 311° West 350 403 12,000 -240 Descending Cleveland Center
07:10AM 41.8239 -82.8986 317° Northwest 348 400 12,000  Level Cleveland Center
07:10AM 41.8911 -82.9764 319° Northwest 347 399 12,000  Level Cleveland Center
07:11AM 41.9622 -83.0628 318° Northwest 345 397 12,000  Level Cleveland Center
07:12AM 42.0394 -83.1525 319° Northwest 344 396 12,000  Level Cleveland Center
07:13AM 42.0964 -83.2219 318° Northwest 261 300 12,000 -720 Level Cleveland Center
07:15AM 42.1647 -83.2361 351° North 242 278 10,600 -1,440 Descending Cleveland Center
07:16AM 42.2239 -83.2022 23° Northeast 239 275 9,100 -1,500 Descending Cleveland Center
07:17AM 42.2894 -83.1628 24° Northeast 239 275 7,600 -1,200 Descending Cleveland Center
07:18AM 42.3531 -83.1231 25° Northeast 231 266 6,600 -1,200 Descending Cleveland Center
07:18AM 42.4003 -83.1447 341° North 234 269 5,300 -1,260 Descending Cleveland Center
07:20AM 42.3736 -83.2253 246° West 216 249 4,200 -1,020 Descending Cleveland Center